This is the latest recevied weather packets stored in our database for station/object SQ3RAX-13. If no packets are shown the sender has not sent any weather packets the latest 1 day(s).
| Time | Temp. | Humidity | Pressure | Rain* | Wind** | Luminosity | Snow |
|---|---|---|---|---|---|---|---|
| 1778084168 | 16.67° C | 73% | 1006 hPa | 0 mm | - | - | - |
| 1778083568 | 16.67° C | 73% | 1006 hPa | 0 mm | - | - | - |
| 1778082968 | 16.67° C | 71% | 1005 hPa | 0 mm | - | - | - |
| 1778082368 | 16.67° C | 71% | 1005 hPa | 0 mm | - | - | - |
| 1778081768 | 17.22° C | 70% | 1005 hPa | 0 mm | - | - | - |
| 1778081168 | 17.22° C | 70% | 1005 hPa | 0 mm | - | - | - |
| 1778079968 | 17.22° C | 69% | 1005 hPa | 0 mm | - | - | - |
| 1778062045 | 15.56° C | 77% | 1003 hPa | 0 mm | - | - | - |
| 1778052967 | 13.33° C | 85% | 1004 hPa | 0 mm | - | - | - |
| 1778052367 | 13.33° C | 85% | 1004 hPa | 0 mm | - | - | - |
| 1778049967 | 12.78° C | 87% | 1004 hPa | 0 mm | - | - | - |
| 1778048767 | 12.78° C | 86% | 1004 hPa | 0 mm | - | - | - |
| 1778048167 | 12.22° C | 86% | 1004 hPa | 0 mm | - | - | - |
| 1778046967 | 12.22° C | 86% | 1004 hPa | 0 mm | - | - | - |
| 1778043967 | 11.67° C | 87% | 1004 hPa | 0 mm | - | - | - |
| 1778043367 | 11.67° C | 87% | 1004 hPa | 0 mm | - | - | - |
| 1778042767 | 11.11° C | 88% | 1004 hPa | 0 mm | - | - | - |
| 1778042167 | 11.11° C | 88% | 1004 hPa | 0 mm | - | - | - |
| 1778041567 | 11.11° C | 90% | 1005 hPa | 0 mm | - | - | - |
| 1778040967 | 11.11° C | 90% | 1005 hPa | 0 mm | - | - | - |
| 1778040367 | 11.11° C | 90% | 1005 hPa | 0 mm | - | - | - |
| 1778039767 | 11.11° C | 89% | 1004 hPa | 0 mm | - | - | - |
| 1778039167 | 10.56° C | 89% | 1004 hPa | 0 mm | - | - | - |
| 1778038567 | 10.56° C | 89% | 1004 hPa | 0 mm | - | - | - |
| 1778037967 | 10.56° C | 90% | 1005 hPa | 0 mm | - | - | - |
* Rain latest hour (hover to see other rain measurements)
** Current wind speed in m/s (hover to see current wind gust speed)